METAR Data
IDs: Format: Raw Decoded Include TAF

Data at: 2300 UTC 25 Oct 2021

KTPL 252251Z AUTO 15008KT 10SM CLR 29/22 A2991 RMK AO2 SLP117 T02940222
KTPL 252151Z AUTO 14010KT 10SM FEW035 31/23 A2991 RMK AO2 SLP117 T03060228
KTPL 252051Z AUTO 17009KT 10SM FEW032 31/23 A2992 RMK AO2 SLP119 T03060228 56020
KTPL 251951Z AUTO VRB04KT 10SM CLR 31/23 A2993 RMK AO2 SLP122 T03060228
KTPL 251851Z AUTO 17004KT 10SM CLR 30/23 A2995 RMK AO2 SLP130 T03000228
KTPL 251751Z AUTO VRB03KT 10SM CLR 29/23 A2998 RMK AO2 SLP139 T02890228 10294 20178 58008
KTPL 251651Z AUTO 19005KT 10SM CLR 28/23 A2999 RMK AO2 SLP143 T02830228
KTPL 251551Z AUTO VRB04KT 10SM SCT002 24/22 A3000 RMK AO2 SLP147 T02440222
KTPL 251528Z AUTO 18005KT 3SM BR OVC002 23/22 A3000 RMK AO2
KTPL 251519Z AUTO 19005KT 1 1/4SM BR OVC002 23/22 A3000 RMK AO2 VIS 1/2V2 1/2
KTPL 251511Z AUTO 17006KT 3/4SM BR OVC002 22/22 A3000 RMK AO2 RVRNO
KTPL 251503Z AUTO 18006KT 1SM BR BKN002 23/22 A3000 RMK AO2 RVRNO
KTPL 251454Z AUTO 18006KT 2 1/2SM BR BKN002 23/22 A3000 RMK AO2 VIS 1 3/4V5 CIG 001V004
KTPL 251451Z AUTO 19006KT 3SM BR SCT002 23/22 A3000 RMK AO2 SLP149 T02280217 53016
KTPL 251440Z AUTO 19005KT 9SM FEW004 23/22 A3000 RMK AO2
KTPL 251351Z AUTO 17004KT 8SM CLR 21/21 A2998 RMK AO2 SLP144 T02110211
KTPL 251305Z AUTO 16004KT 5SM BR CLR 19/19 A2996 RMK AO2
KTPL 251251Z AUTO 00000KT 2SM BR CLR 19/19 A2996 RMK AO2 SLP137 T01890189
KTPL 251238Z AUTO 00000KT 2 1/2SM BR CLR 19/19 A2996 RMK AO2 VIS 1 1/4V4
KTPL 251228Z AUTO 00000KT 1 3/4SM BR CLR 18/18 A2996 RMK AO2 VIS 1V4
KTPL 251214Z AUTO 00000KT 3SM BR CLR 18/18 A2996 RMK AO2
KTPL 251207Z AUTO 00000KT 1 1/4SM BR CLR 19/19 A2996 RMK AO2
KTPL 251158Z AUTO 00000KT 3/4SM BR CLR 18/18 A2995 RMK AO2 RVRNO
KTPL 251153Z AUTO 09003KT 1 3/4SM BR CLR 19/19 A2995 RMK AO2
KTPL 251151Z AUTO 09003KT 3SM BR CLR 19/19 A2995 RMK AO2 SLP134 T01890189 10206 20178 53014
KTPL 251147Z AUTO 08003KT 3SM BR CLR 19/19 A2995 RMK AO2
KTPL 251123Z AUTO 00000KT 1 3/4SM BR CLR 18/18 A2995 RMK AO2 VIS 3/4V4
KTPL 251051Z AUTO 04004KT 6SM BR CLR 18/18 A2993 RMK AO2 SLP126 T01830183
KTPL 250951Z AUTO 05003KT 8SM CLR 19/19 A2992 RMK AO2 SLP120 T01890189
KTPL 250851Z AUTO 00000KT 10SM CLR 19/19 A2991 RMK AO2 SLP118 T01890189 50003
KTPL 250751Z AUTO 17006KT 10SM CLR 19/19 A2991 RMK AO2 SLP119 T01940194
KTPL 250651Z AUTO 17003KT 10SM CLR 20/19 A2991 RMK AO2 SLP117 T02000194
KTPL 250551Z AUTO 18003KT 10SM CLR 21/19 A2990 RMK AO2 SLP115 T02060194 10256 20206 402940189 51013
KTPL 250451Z AUTO 19006KT 10SM CLR 22/20 A2990 RMK AO2 SLP115 T02220200
KTPL 250351Z AUTO 18006KT 10SM CLR 23/19 A2988 RMK AO2 SLP109 T02280194
KTPL 250251Z AUTO 16006KT 10SM CLR 22/19 A2986 RMK AO2 SLP104 T02220194 51016
KTPL 250151Z AUTO 16005KT 10SM CLR 23/19 A2985 RMK AO2 SLP099 T02280189
KTPL 250051Z AUTO 16008KT 10SM CLR 24/19 A2984 RMK AO2 SLP094 T02390194
KTPL 242351Z AUTO 16009KT 10SM CLR 26/19 A2982 RMK AO2 SLP087 T02560194 10294 20256 52002
KTPL 242251Z AUTO 18009KT 10SM CLR 28/20 A2982 RMK AO2 SLP086 T02830200
KTPL 242151Z AUTO 17011KT 10SM BKN047 28/20 A2981 RMK AO2 SLP085 T02830200
KTPL 242051Z AUTO 16012KT 10SM BKN038 29/21 A2981 RMK AO2 SLP085 T02890206 56016
KTPL 241951Z AUTO 17015KT 10SM BKN034 28/21 A2982 RMK AO2 SLP086 T02830206
KTPL 241931Z AUTO 16014KT 10SM BKN030 BKN037 28/21 A2982 RMK AO2
KTPL 241851Z AUTO 16013G20KT 10SM BKN028 28/21 A2983 RMK AO2 SLP092 T02780211
KTPL 241839Z AUTO 16016G20KT 10SM BKN028 28/21 A2984 RMK AO2
KTPL 241751Z AUTO 17016G20KT 10SM FEW017 27/22 A2986 RMK AO2 SLP101 T02720217 10272 20206 58017
KTPL 241736Z AUTO 16012KT 10SM SCT015 BKN039 27/21 A2987 RMK AO2
KTPL 241651Z AUTO 17012KT 10SM OVC011 24/22 A2990 RMK AO2 CIG 009V013 SLP115 T02440217
KTPL 241608Z AUTO 17009KT 10SM OVC007 23/22 A2990 RMK AO2 CIG 006V010
KTPL 241551Z AUTO 18008KT 10SM OVC005 22/22 A2990 RMK AO2 SLP117 T02220222
KTPL 241503Z AUTO 16006KT 10SM OVC005 21/21 A2991 RMK AO2
KTPL 241451Z AUTO 15006KT 9SM OVC003 21/21 A2991 RMK AO2 SLP121 T02110211 53021
KTPL 241351Z AUTO 13008KT 6SM BR OVC003 21/21 A2988 RMK AO2 SLP111 T02060206
KTPL 241251Z AUTO 17009KT 4SM BR OVC003 21/21 A2986 RMK AO2 SLP103 T02060206
KTPL 241213Z AUTO 17007KT 4SM BR OVC003 21/21 A2986 RMK AO2
KTPL 241151Z AUTO 17011KT 2 1/2SM BR OVC003 21/21 A2985 RMK AO2 SLP098 T02060206 10206 20189 53004